PWSweather.com
Personal Weather Stations
Station Observations

ThassosGR

Lat: 40.743206, Lon: 24.577205

Elevation: 150

Station Type:

http://www.realestate-thassos.com/weather-thassos/

Latest ConditionsUpdated 11:15:16 AM GMT+02:02 Saturday, Sep 23, 2017
Currently Today's Max Today's Min Today's Average
Temperature 78.3°F25.7°C 78.3°F25.7°C 57.6°F14.2°C 64.6°F18.1°C
Dew Point 47.6°F8.7°C 53.7°F12.1°C 46.5°F8.1°C 48.9°F9.4°C
Winds 2.2 mph NW3.5 kmh NW 3.1 mph SSE5.0 kmh SSE - 1.8 mph 2.9 kmh
Wind Gusts 6.9 mph11.1 kmh 9.8 mph15.8 kmh - -
Humidity 34% 74% 34% 58%
Pressure 30.28 in1025.4 mb 30.37 in1028.4 mb 30.25 in1024.4 mb -
Hour Temp Dew Point Humidity Winds Wind Gusts Pressure Precip Precip Rate Daily Precip Total
11:15 AM 78.3°F25.7°C 47.6°F8.7°C 34% 2.2 mph NW3.5 kmh NW 6.9 mph11.1 kmh 30.28 in1025.4 mb 0.00 in0.0 mm 0.00 in0.0 mm 0.00 in0.0 mm
11:01 AM 77.7°F25.4°C 47.9°F8.8°C 35% 1.6 mph NE2.6 kmh NE 5.4 mph8.7 kmh 30.28 in1025.4 mb 0.00 in0.0 mm 0.00 in0.0 mm 0.00 in0.0 mm
10:47 AM 77.7°F25.4°C 47.9°F8.8°C 35% 3.1 mph WNW5.0 kmh WNW 6.0 mph9.7 kmh 30.28 in1025.4 mb 0.00 in0.0 mm 0.00 in0.0 mm 0.00 in0.0 mm
10:33 AM 77.0°F25.0°C 46.5°F8.1°C 34% 0.7 mph NW1.1 kmh NW 8.3 mph13.4 kmh 30.28 in1025.4 mb 0.00 in0.0 mm 0.00 in0.0 mm 0.00 in0.0 mm
10:19 AM 77.0°F25.0°C 48.8°F9.3°C 37% 0.7 mph W1.1 kmh W 6.9 mph11.1 kmh 30.28 in1025.4 mb 0.00 in0.0 mm 0.00 in0.0 mm 0.00 in0.0 mm
10:05 AM 75.9°F24.4°C 50.6°F10.3°C 41% Calm Calm 6.0 mph9.7 kmh 30.28 in1025.4 mb 0.00 in0.0 mm 0.00 in0.0 mm 0.00 in0.0 mm
09:51 AM 75.7°F24.3°C 49.7°F9.8°C 40% 1.6 mph WSW2.6 kmh WSW 5.4 mph8.7 kmh 30.28 in1025.4 mb 0.00 in0.0 mm 0.00 in0.0 mm 0.00 in0.0 mm
09:37 AM 75.2°F24.0°C 49.3°F9.6°C 40% Calm Calm 6.9 mph11.1 kmh 30.28 in1025.4 mb 0.00 in0.0 mm 0.00 in0.0 mm 0.00 in0.0 mm
09:23 AM 73.9°F23.3°C 50.1°F10.1°C 43% 2.2 mph NW3.5 kmh NW 9.2 mph14.8 kmh 30.29 in1025.7 mb 0.00 in0.0 mm 0.00 in0.0 mm 0.00 in0.0 mm
09:09 AM 73.0°F22.8°C 49.2°F9.6°C 43% 1.6 mph NW2.6 kmh NW 9.8 mph15.8 kmh 30.28 in1025.4 mb 0.00 in0.0 mm 0.00 in0.0 mm 0.00 in0.0 mm
08:55 AM 72.9°F22.7°C 50.9°F10.5°C 46% 1.6 mph NW2.6 kmh NW 7.6 mph12.2 kmh 30.28 in1025.4 mb 0.00 in0.0 mm 0.00 in0.0 mm 0.00 in0.0 mm
08:41 AM 72.0°F22.2°C 50.7°F10.4°C 47% Calm Calm 3.1 mph5.0 kmh 30.29 in1025.7 mb 0.00 in0.0 mm 0.00 in0.0 mm 0.00 in0.0 mm
08:27 AM 72.1°F22.3°C 50.8°F10.4°C 47% 0.7 mph N1.1 kmh N 2.2 mph3.5 kmh 30.30 in1026.1 mb 0.00 in0.0 mm 0.00 in0.0 mm 0.00 in0.0 mm
08:13 AM 71.1°F21.7°C 51.0°F10.6°C 49% Calm Calm 2.2 mph3.5 kmh 30.30 in1026.1 mb 0.00 in0.0 mm 0.00 in0.0 mm 0.00 in0.0 mm
07:59 AM 70.0°F21.1°C 51.0°F10.6°C 51% 0.7 mph SE1.1 kmh SE 3.1 mph5.0 kmh 30.32 in1026.8 mb 0.00 in0.0 mm 0.00 in0.0 mm 0.00 in0.0 mm
07:45 AM 70.7°F21.5°C 52.2°F11.2°C 52% 0.7 mph SSE1.1 kmh SSE 3.1 mph5.0 kmh 30.33 in1027.1 mb 0.00 in0.0 mm 0.00 in0.0 mm 0.00 in0.0 mm
07:31 AM 69.1°F20.6°C 53.7°F12.1°C 58% 1.6 mph SSE2.6 kmh SSE 3.1 mph5.0 kmh 30.35 in1027.8 mb 0.00 in0.0 mm 0.00 in0.0 mm 0.00 in0.0 mm
07:17 AM 61.0°F16.1°C 50.8°F10.4°C 69% 2.2 mph SE3.5 kmh SE 5.4 mph8.7 kmh 30.37 in1028.4 mb 0.00 in0.0 mm 0.00 in0.0 mm 0.00 in0.0 mm
07:03 AM 58.8°F14.9°C 49.1°F9.5°C 70% 2.2 mph SE3.5 kmh SE 4.5 mph7.2 kmh 30.37 in1028.4 mb 0.00 in0.0 mm 0.00 in0.0 mm 0.00 in0.0 mm
06:49 AM 58.1°F14.5°C 48.8°F9.3°C 71% 2.2 mph SSE3.5 kmh SSE 5.4 mph8.7 kmh 30.36 in1028.1 mb 0.00 in0.0 mm 0.00 in0.0 mm 0.00 in0.0 mm
06:35 AM 57.9°F14.4°C 48.6°F9.2°C 71% 2.2 mph SE3.5 kmh SE 4.5 mph7.2 kmh 30.36 in1028.1 mb 0.00 in0.0 mm 0.00 in0.0 mm 0.00 in0.0 mm
06:21 AM 57.9°F14.4°C 49.0°F9.4°C 72% 3.1 mph S5.0 kmh S 5.4 mph8.7 kmh 30.36 in1028.1 mb 0.00 in0.0 mm 0.00 in0.0 mm 0.00 in0.0 mm
06:07 AM 57.6°F14.2°C 49.3°F9.6°C 74% 3.1 mph SE5.0 kmh SE 3.8 mph6.1 kmh 30.35 in1027.8 mb 0.00 in0.0 mm 0.00 in0.0 mm 0.00 in0.0 mm
05:53 AM 58.3°F14.6°C 49.7°F9.8°C 73% 1.6 mph SE2.6 kmh SE 3.8 mph6.1 kmh 30.35 in1027.8 mb 0.00 in0.0 mm 0.00 in0.0 mm 0.00 in0.0 mm
05:39 AM 58.6°F14.8°C 50.0°F10.0°C 73% 3.1 mph SE5.0 kmh SE 5.4 mph8.7 kmh 30.34 in1027.4 mb 0.00 in0.0 mm 0.00 in0.0 mm 0.00 in0.0 mm
05:25 AM 57.9°F14.4°C 49.7°F9.8°C 74% 1.6 mph SSE2.6 kmh SSE 4.5 mph7.2 kmh 30.34 in1027.4 mb 0.00 in0.0 mm 0.00 in0.0 mm 0.00 in0.0 mm
05:11 AM 58.1°F14.5°C 49.5°F9.7°C 73% 2.2 mph SSE3.5 kmh SSE 4.5 mph7.2 kmh 30.33 in1027.1 mb 0.00 in0.0 mm 0.00 in0.0 mm 0.00 in0.0 mm
04:57 AM 57.7°F14.3°C 49.2°F9.6°C 73% 3.1 mph SE5.0 kmh SE 4.5 mph7.2 kmh 30.33 in1027.1 mb 0.00 in0.0 mm 0.00 in0.0 mm 0.00 in0.0 mm
04:43 AM 58.6°F14.8°C 48.9°F9.4°C 70% 1.6 mph SE2.6 kmh SE 3.8 mph6.1 kmh 30.32 in1026.8 mb 0.00 in0.0 mm 0.00 in0.0 mm 0.00 in0.0 mm
04:29 AM 58.8°F14.9°C 48.3°F9.1°C 68% 2.2 mph SE3.5 kmh SE 3.1 mph5.0 kmh 30.32 in1026.8 mb 0.00 in0.0 mm 0.00 in0.0 mm 0.00 in0.0 mm
04:15 AM 58.6°F14.8°C 47.7°F8.7°C 67% 1.6 mph SE2.6 kmh SE 3.1 mph5.0 kmh 30.32 in1026.8 mb 0.00 in0.0 mm 0.00 in0.0 mm 0.00 in0.0 mm
04:01 AM 59.2°F15.1°C 47.4°F8.6°C 65% 1.6 mph SE2.6 kmh SE 3.8 mph6.1 kmh 30.31 in1026.4 mb 0.00 in0.0 mm 0.00 in0.0 mm 0.00 in0.0 mm
03:47 AM 59.4°F15.2°C 47.6°F8.7°C 65% 2.2 mph SE3.5 kmh SE 5.4 mph8.7 kmh 30.31 in1026.4 mb 0.00 in0.0 mm 0.00 in0.0 mm 0.00 in0.0 mm
03:33 AM 59.2°F15.1°C 47.4°F8.6°C 65% 2.2 mph SE3.5 kmh SE 5.4 mph8.7 kmh 30.31 in1026.4 mb 0.00 in0.0 mm 0.00 in0.0 mm 0.00 in0.0 mm
03:19 AM 59.5°F15.3°C 47.4°F8.6°C 64% 1.6 mph SE2.6 kmh SE 3.1 mph5.0 kmh 30.30 in1026.1 mb 0.00 in0.0 mm 0.00 in0.0 mm 0.00 in0.0 mm
03:05 AM 59.7°F15.4°C 47.5°F8.6°C 64% 2.2 mph SSE3.5 kmh SSE 4.5 mph7.2 kmh 30.30 in1026.1 mb 0.00 in0.0 mm 0.00 in0.0 mm 0.00 in0.0 mm
02:51 AM 59.9°F15.5°C 47.7°F8.7°C 64% 2.2 mph SE3.5 kmh SE 4.5 mph7.2 kmh 30.30 in1026.1 mb 0.00 in0.0 mm 0.00 in0.0 mm 0.00 in0.0 mm
02:37 AM 60.1°F15.6°C 47.5°F8.6°C 63% 2.2 mph SE3.5 kmh SE 4.5 mph7.2 kmh 30.30 in1026.1 mb 0.00 in0.0 mm 0.00 in0.0 mm 0.00 in0.0 mm
02:23 AM 60.4°F15.8°C 47.8°F8.8°C 63% 2.2 mph SE3.5 kmh SE 5.4 mph8.7 kmh 30.29 in1025.7 mb 0.00 in0.0 mm 0.00 in0.0 mm 0.00 in0.0 mm
02:09 AM 60.3°F15.7°C 47.2°F8.4°C 62% 1.6 mph SE2.6 kmh SE 3.8 mph6.1 kmh 30.29 in1025.7 mb 0.00 in0.0 mm 0.00 in0.0 mm 0.00 in0.0 mm
01:55 AM 60.6°F15.9°C 47.1°F8.4°C 61% 2.2 mph SE3.5 kmh SE 3.8 mph6.1 kmh 30.28 in1025.4 mb 0.00 in0.0 mm 0.00 in0.0 mm 0.00 in0.0 mm
01:41 AM 60.8°F16.0°C 46.8°F8.2°C 60% 3.1 mph SSE5.0 kmh SSE 4.5 mph7.2 kmh 30.28 in1025.4 mb 0.00 in0.0 mm 0.00 in0.0 mm 0.00 in0.0 mm
01:27 AM 60.4°F15.8°C 47.8°F8.8°C 63% 2.2 mph SE3.5 kmh SE 4.5 mph7.2 kmh 30.27 in1025.1 mb 0.00 in0.0 mm 0.00 in0.0 mm 0.00 in0.0 mm
01:13 AM 61.2°F16.2°C 47.6°F8.7°C 61% 0.7 mph SE1.1 kmh SE 4.5 mph7.2 kmh 30.27 in1025.1 mb 0.00 in0.0 mm 0.00 in0.0 mm 0.00 in0.0 mm
12:59 AM 61.2°F16.2°C 48.1°F8.9°C 62% 2.2 mph SE3.5 kmh SE 6.0 mph9.7 kmh 30.26 in1024.7 mb 0.00 in0.0 mm 0.00 in0.0 mm 0.00 in0.0 mm
12:45 AM 61.5°F16.4°C 48.4°F9.1°C 62% 2.2 mph SE3.5 kmh SE 3.8 mph6.1 kmh 30.26 in1024.7 mb 0.00 in0.0 mm 0.00 in0.0 mm 0.00 in0.0 mm
12:31 AM 61.2°F16.2°C 48.5°F9.2°C 63% 1.6 mph SE2.6 kmh SE 4.5 mph7.2 kmh 30.26 in1024.7 mb 0.00 in0.0 mm 0.00 in0.0 mm 0.00 in0.0 mm
12:17 AM 62.1°F16.7°C 49.3°F9.6°C 63% 1.6 mph SE2.6 kmh SE 3.8 mph6.1 kmh 30.26 in1024.7 mb 0.00 in0.0 mm 0.00 in0.0 mm 0.00 in0.0 mm
12:03 AM 62.4°F16.9°C 50.1°F10.1°C 64% 2.2 mph SE3.5 kmh SE 3.8 mph6.1 kmh 30.25 in1024.4 mb 0.00 in0.0 mm 0.00 in0.0 mm 0.00 in0.0 mm